sensor_id;sensor_type;location;lat;lon;timestamp;P1;durP1;ratioP1;P2;durP2;ratioP2
69256;SDS011;56376;53.356;-1.748;2024-03-07T00:02:18;21.50;;;16.33;;
69256;SDS011;56376;53.356;-1.748;2024-03-07T00:04:45;24.20;;;17.23;;
69256;SDS011;56376;53.356;-1.748;2024-03-07T00:07:10;34.87;;;20.23;;
69256;SDS011;56376;53.356;-1.748;2024-03-07T00:09:36;31.37;;;17.33;;
69256;SDS011;56376;53.356;-1.748;2024-03-07T00:12:02;30.77;;;17.33;;
69256;SDS011;56376;53.356;-1.748;2024-03-07T00:14:28;26.70;;;17.07;;
69256;SDS011;56376;53.356;-1.748;2024-03-07T00:16:54;24.40;;;17.20;;
69256;SDS011;56376;53.356;-1.748;2024-03-07T00:19:21;26.70;;;17.53;;
69256;SDS011;56376;53.356;-1.748;2024-03-07T00:21:47;21.70;;;15.47;;
69256;SDS011;56376;53.356;-1.748;2024-03-07T00:24:13;19.63;;;14.87;;
69256;SDS011;56376;53.356;-1.748;2024-03-07T00:26:41;21.07;;;16.30;;
69256;SDS011;56376;53.356;-1.748;2024-03-07T00:29:07;23.27;;;16.67;;
69256;SDS011;56376;53.356;-1.748;2024-03-07T00:31:32;22.40;;;16.30;;
69256;SDS011;56376;53.356;-1.748;2024-03-07T00:33:59;20.40;;;15.07;;
69256;SDS011;56376;53.356;-1.748;2024-03-07T00:36:24;19.43;;;14.77;;
69256;SDS011;56376;53.356;-1.748;2024-03-07T00:38:51;22.13;;;16.17;;
69256;SDS011;56376;53.356;-1.748;2024-03-07T00:41:17;22.07;;;16.50;;
69256;SDS011;56376;53.356;-1.748;2024-03-07T00:43:43;23.00;;;16.83;;
69256;SDS011;56376;53.356;-1.748;2024-03-07T00:46:09;24.70;;;17.53;;
69256;SDS011;56376;53.356;-1.748;2024-03-07T00:48:36;19.57;;;15.40;;
69256;SDS011;56376;53.356;-1.748;2024-03-07T00:51:02;21.13;;;15.97;;
69256;SDS011;56376;53.356;-1.748;2024-03-07T00:53:30;20.37;;;14.37;;
69256;SDS011;56376;53.356;-1.748;2024-03-07T00:55:56;20.07;;;14.63;;
69256;SDS011;56376;53.356;-1.748;2024-03-07T00:58:22;21.67;;;15.57;;
69256;SDS011;56376;53.356;-1.748;2024-03-07T01:00:47;20.10;;;14.47;;
69256;SDS011;56376;53.356;-1.748;2024-03-07T01:03:13;22.93;;;17.23;;
69256;SDS011;56376;53.356;-1.748;2024-03-07T01:05:41;19.87;;;15.47;;
69256;SDS011;56376;53.356;-1.748;2024-03-07T01:08:07;21.77;;;16.47;;
69256;SDS011;56376;53.356;-1.748;2024-03-07T01:10:32;19.40;;;16.20;;
69256;SDS011;56376;53.356;-1.748;2024-03-07T01:12:58;23.03;;;17.80;;
69256;SDS011;56376;53.356;-1.748;2024-03-07T01:15:27;26.80;;;18.33;;
69256;SDS011;56376;53.356;-1.748;2024-03-07T01:17:53;25.53;;;18.93;;
69256;SDS011;56376;53.356;-1.748;2024-03-07T01:20:19;28.13;;;19.93;;
69256;SDS011;56376;53.356;-1.748;2024-03-07T01:22:44;32.13;;;19.87;;
69256;SDS011;56376;53.356;-1.748;2024-03-07T01:25:10;37.00;;;22.23;;
69256;SDS011;56376;53.356;-1.748;2024-03-07T01:27:37;30.17;;;20.50;;
69256;SDS011;56376;53.356;-1.748;2024-03-07T01:30:03;33.00;;;22.20;;
69256;SDS011;56376;53.356;-1.748;2024-03-07T01:32:33;30.93;;;21.27;;
69256;SDS011;56376;53.356;-1.748;2024-03-07T01:34:58;36.93;;;22.80;;
69256;SDS011;56376;53.356;-1.748;2024-03-07T01:37:24;37.77;;;23.50;;
69256;SDS011;56376;53.356;-1.748;2024-03-07T01:39:49;38.13;;;23.57;;
69256;SDS011;56376;53.356;-1.748;2024-03-07T01:42:15;39.50;;;22.90;;
69256;SDS011;56376;53.356;-1.748;2024-03-07T01:44:41;41.17;;;22.40;;
69256;SDS011;56376;53.356;-1.748;2024-03-07T01:47:08;39.70;;;23.00;;
69256;SDS011;56376;53.356;-1.748;2024-03-07T01:49:35;44.80;;;26.50;;
69256;SDS011;56376;53.356;-1.748;2024-03-07T01:52:01;41.73;;;25.30;;
69256;SDS011;56376;53.356;-1.748;2024-03-07T01:54:30;39.77;;;24.57;;
69256;SDS011;56376;53.356;-1.748;2024-03-07T01:56:57;39.20;;;23.83;;
69256;SDS011;56376;53.356;-1.748;2024-03-07T01:59:23;33.50;;;22.03;;
69256;SDS011;56376;53.356;-1.748;2024-03-07T02:01:50;35.63;;;21.13;;
69256;SDS011;56376;53.356;-1.748;2024-03-07T02:04:18;32.77;;;21.70;;
69256;SDS011;56376;53.356;-1.748;2024-03-07T02:06:43;32.20;;;20.83;;
69256;SDS011;56376;53.356;-1.748;2024-03-07T02:09:09;28.33;;;18.47;;
69256;SDS011;56376;53.356;-1.748;2024-03-07T02:11:35;23.77;;;18.30;;
69256;SDS011;56376;53.356;-1.748;2024-03-07T02:19:11;29.90;;;21.07;;
69256;SDS011;56376;53.356;-1.748;2024-03-07T02:21:40;29.60;;;20.37;;
69256;SDS011;56376;53.356;-1.748;2024-03-07T02:24:07;30.33;;;21.00;;
69256;SDS011;56376;53.356;-1.748;2024-03-07T02:26:33;30.67;;;20.87;;
69256;SDS011;56376;53.356;-1.748;2024-03-07T02:28:59;31.00;;;21.70;;
69256;SDS011;56376;53.356;-1.748;2024-03-07T02:31:24;28.17;;;20.17;;
69256;SDS011;56376;53.356;-1.748;2024-03-07T02:34:01;32.07;;;22.20;;
69256;SDS011;56376;53.356;-1.748;2024-03-07T02:36:32;33.67;;;22.77;;
69256;SDS011;56376;53.356;-1.748;2024-03-07T02:38:59;32.30;;;23.57;;
69256;SDS011;56376;53.356;-1.748;2024-03-07T02:41:25;31.87;;;21.43;;
69256;SDS011;56376;53.356;-1.748;2024-03-07T02:43:52;30.47;;;21.73;;
69256;SDS011;56376;53.356;-1.748;2024-03-07T02:46:18;29.40;;;22.47;;
69256;SDS011;56376;53.356;-1.748;2024-03-07T02:48:44;28.57;;;21.00;;
69256;SDS011;56376;53.356;-1.748;2024-03-07T02:51:10;30.33;;;20.97;;
69256;SDS011;56376;53.356;-1.748;2024-03-07T02:53:36;27.30;;;20.23;;
69256;SDS011;56376;53.356;-1.748;2024-03-07T02:56:03;31.17;;;22.67;;
69256;SDS011;56376;53.356;-1.748;2024-03-07T02:58:33;29.20;;;20.47;;
69256;SDS011;56376;53.356;-1.748;2024-03-07T03:00:58;29.47;;;20.67;;
69256;SDS011;56376;53.356;-1.748;2024-03-07T03:06:16;27.93;;;20.17;;
69256;SDS011;56376;53.356;-1.748;2024-03-07T03:08:45;31.47;;;20.77;;
69256;SDS011;56376;53.356;-1.748;2024-03-07T03:11:11;31.53;;;21.90;;
69256;SDS011;56376;53.356;-1.748;2024-03-07T03:13:39;30.77;;;20.80;;
69256;SDS011;56376;53.356;-1.748;2024-03-07T03:16:05;31.97;;;21.57;;
69256;SDS011;56376;53.356;-1.748;2024-03-07T03:18:34;37.90;;;23.33;;
69256;SDS011;56376;53.356;-1.748;2024-03-07T03:21:00;27.93;;;20.17;;
69256;SDS011;56376;53.356;-1.748;2024-03-07T03:23:28;33.63;;;22.93;;
69256;SDS011;56376;53.356;-1.748;2024-03-07T03:25:54;36.03;;;23.03;;
69256;SDS011;56376;53.356;-1.748;2024-03-07T03:28:20;38.77;;;24.83;;
69256;SDS011;56376;53.356;-1.748;2024-03-07T03:30:46;36.37;;;24.10;;
69256;SDS011;56376;53.356;-1.748;2024-03-07T03:33:12;39.03;;;23.57;;
69256;SDS011;56376;53.356;-1.748;2024-03-07T03:35:38;38.33;;;23.70;;
69256;SDS011;56376;53.356;-1.748;2024-03-07T03:38:04;35.77;;;21.87;;
69256;SDS011;56376;53.356;-1.748;2024-03-07T03:40:30;31.13;;;20.63;;
69256;SDS011;56376;53.356;-1.748;2024-03-07T03:42:55;31.33;;;20.70;;
69256;SDS011;56376;53.356;-1.748;2024-03-07T03:45:21;33.43;;;20.40;;
69256;SDS011;56376;53.356;-1.748;2024-03-07T03:47:46;34.80;;;22.73;;
69256;SDS011;56376;53.356;-1.748;2024-03-07T03:50:13;32.97;;;21.43;;
69256;SDS011;56376;53.356;-1.748;2024-03-07T03:52:41;32.97;;;22.37;;
69256;SDS011;56376;53.356;-1.748;2024-03-07T03:55:07;38.43;;;24.23;;
69256;SDS011;56376;53.356;-1.748;2024-03-07T03:57:40;36.83;;;23.10;;
69256;SDS011;56376;53.356;-1.748;2024-03-07T04:00:09;33.90;;;21.13;;
69256;SDS011;56376;53.356;-1.748;2024-03-07T04:02:42;33.33;;;21.53;;
69256;SDS011;56376;53.356;-1.748;2024-03-07T04:05:10;35.63;;;21.70;;
69256;SDS011;56376;53.356;-1.748;2024-03-07T04:07:40;30.87;;;20.47;;
69256;SDS011;56376;53.356;-1.748;2024-03-07T04:10:07;31.50;;;20.07;;
69256;SDS011;56376;53.356;-1.748;2024-03-07T04:12:36;29.67;;;19.20;;
69256;SDS011;56376;53.356;-1.748;2024-03-07T04:15:03;27.17;;;16.83;;
69256;SDS011;56376;53.356;-1.748;2024-03-07T04:17:30;27.33;;;17.93;;
69256;SDS011;56376;53.356;-1.748;2024-03-07T04:19:56;29.50;;;19.33;;
69256;SDS011;56376;53.356;-1.748;2024-03-07T04:22:23;31.97;;;20.57;;
69256;SDS011;56376;53.356;-1.748;2024-03-07T04:24:50;32.33;;;20.10;;
69256;SDS011;56376;53.356;-1.748;2024-03-07T04:27:19;26.73;;;18.40;;
69256;SDS011;56376;53.356;-1.748;2024-03-07T04:29:46;27.43;;;17.97;;
69256;SDS011;56376;53.356;-1.748;2024-03-07T04:32:13;25.13;;;16.87;;
69256;SDS011;56376;53.356;-1.748;2024-03-07T04:34:38;27.40;;;16.63;;
69256;SDS011;56376;53.356;-1.748;2024-03-07T04:37:04;24.20;;;16.20;;
69256;SDS011;56376;53.356;-1.748;2024-03-07T04:39:30;27.20;;;17.47;;
69256;SDS011;56376;53.356;-1.748;2024-03-07T04:42:04;24.30;;;15.77;;
69256;SDS011;56376;53.356;-1.748;2024-03-07T04:44:36;22.03;;;15.47;;
69256;SDS011;56376;53.356;-1.748;2024-03-07T04:47:02;26.97;;;16.33;;
69256;SDS011;56376;53.356;-1.748;2024-03-07T04:49:29;23.33;;;15.03;;
69256;SDS011;56376;53.356;-1.748;2024-03-07T04:51:56;25.33;;;18.10;;
69256;SDS011;56376;53.356;-1.748;2024-03-07T04:54:28;25.43;;;16.27;;
69256;SDS011;56376;53.356;-1.748;2024-03-07T04:56:54;27.77;;;17.27;;
69256;SDS011;56376;53.356;-1.748;2024-03-07T04:59:21;25.90;;;16.33;;
69256;SDS011;56376;53.356;-1.748;2024-03-07T05:01:47;22.20;;;14.43;;
69256;SDS011;56376;53.356;-1.748;2024-03-07T05:04:16;23.03;;;15.30;;
69256;SDS011;56376;53.356;-1.748;2024-03-07T05:06:42;23.53;;;15.17;;
69256;SDS011;56376;53.356;-1.748;2024-03-07T05:09:08;22.43;;;14.73;;
69256;SDS011;56376;53.356;-1.748;2024-03-07T05:11:38;21.07;;;14.03;;
69256;SDS011;56376;53.356;-1.748;2024-03-07T05:14:06;22.80;;;14.37;;
69256;SDS011;56376;53.356;-1.748;2024-03-07T05:16:32;20.73;;;13.43;;
69256;SDS011;56376;53.356;-1.748;2024-03-07T05:18:57;20.50;;;12.27;;
69256;SDS011;56376;53.356;-1.748;2024-03-07T05:21:24;17.77;;;12.13;;
69256;SDS011;56376;53.356;-1.748;2024-03-07T05:24:04;17.83;;;11.50;;
69256;SDS011;56376;53.356;-1.748;2024-03-07T05:26:31;19.97;;;12.43;;
69256;SDS011;56376;53.356;-1.748;2024-03-07T05:29:05;20.57;;;12.90;;
69256;SDS011;56376;53.356;-1.748;2024-03-07T05:31:37;19.83;;;13.13;;
69256;SDS011;56376;53.356;-1.748;2024-03-07T05:34:04;19.80;;;13.23;;
69256;SDS011;56376;53.356;-1.748;2024-03-07T05:36:36;22.20;;;13.17;;
69256;SDS011;56376;53.356;-1.748;2024-03-07T05:39:08;20.13;;;11.93;;
69256;SDS011;56376;53.356;-1.748;2024-03-07T05:41:36;19.23;;;12.23;;
69256;SDS011;56376;53.356;-1.748;2024-03-07T05:44:02;19.20;;;12.27;;
69256;SDS011;56376;53.356;-1.748;2024-03-07T05:46:27;21.23;;;14.03;;
69256;SDS011;56376;53.356;-1.748;2024-03-07T05:48:53;22.07;;;13.77;;
69256;SDS011;56376;53.356;-1.748;2024-03-07T05:51:22;22.80;;;14.50;;
69256;SDS011;56376;53.356;-1.748;2024-03-07T05:53:49;21.17;;;14.00;;
69256;SDS011;56376;53.356;-1.748;2024-03-07T05:56:15;23.60;;;14.47;;
69256;SDS011;56376;53.356;-1.748;2024-03-07T05:58:41;22.93;;;14.03;;
69256;SDS011;56376;53.356;-1.748;2024-03-07T06:01:06;20.50;;;13.87;;
69256;SDS011;56376;53.356;-1.748;2024-03-07T06:03:33;22.07;;;13.57;;
69256;SDS011;56376;53.356;-1.748;2024-03-07T06:05:59;24.20;;;13.77;;
69256;SDS011;56376;53.356;-1.748;2024-03-07T06:08:25;22.80;;;13.33;;
69256;SDS011;56376;53.356;-1.748;2024-03-07T06:10:50;21.47;;;13.87;;
69256;SDS011;56376;53.356;-1.748;2024-03-07T06:13:17;20.80;;;13.63;;
69256;SDS011;56376;53.356;-1.748;2024-03-07T06:15:43;20.30;;;13.30;;
69256;SDS011;56376;53.356;-1.748;2024-03-07T06:18:10;20.27;;;13.73;;
69256;SDS011;56376;53.356;-1.748;2024-03-07T06:20:36;21.87;;;12.93;;
69256;SDS011;56376;53.356;-1.748;2024-03-07T06:23:03;19.17;;;12.60;;
69256;SDS011;56376;53.356;-1.748;2024-03-07T06:25:32;24.80;;;15.87;;
69256;SDS011;56376;53.356;-1.748;2024-03-07T06:28:12;22.97;;;14.13;;
69256;SDS011;56376;53.356;-1.748;2024-03-07T06:30:39;23.60;;;14.17;;
69256;SDS011;56376;53.356;-1.748;2024-03-07T06:33:07;23.10;;;14.30;;
69256;SDS011;56376;53.356;-1.748;2024-03-07T06:35:33;23.87;;;14.50;;
69256;SDS011;56376;53.356;-1.748;2024-03-07T06:38:11;24.63;;;15.57;;
69256;SDS011;56376;53.356;-1.748;2024-03-07T06:40:37;28.73;;;16.67;;
69256;SDS011;56376;53.356;-1.748;2024-03-07T06:43:08;28.67;;;16.87;;
69256;SDS011;56376;53.356;-1.748;2024-03-07T06:45:35;24.33;;;15.07;;
69256;SDS011;56376;53.356;-1.748;2024-03-07T06:48:02;22.10;;;13.77;;
69256;SDS011;56376;53.356;-1.748;2024-03-07T06:50:37;22.60;;;13.73;;
69256;SDS011;56376;53.356;-1.748;2024-03-07T06:53:04;22.10;;;14.47;;
69256;SDS011;56376;53.356;-1.748;2024-03-07T06:55:32;25.97;;;14.20;;
69256;SDS011;56376;53.356;-1.748;2024-03-07T06:57:59;22.83;;;13.73;;
69256;SDS011;56376;53.356;-1.748;2024-03-07T07:00:25;23.97;;;14.20;;
69256;SDS011;56376;53.356;-1.748;2024-03-07T07:02:51;33.80;;;17.20;;
69256;SDS011;56376;53.356;-1.748;2024-03-07T07:05:21;28.07;;;15.57;;
69256;SDS011;56376;53.356;-1.748;2024-03-07T07:07:47;23.77;;;14.93;;
69256;SDS011;56376;53.356;-1.748;2024-03-07T07:10:13;25.87;;;15.77;;
69256;SDS011;56376;53.356;-1.748;2024-03-07T07:12:44;26.73;;;15.10;;
69256;SDS011;56376;53.356;-1.748;2024-03-07T07:15:10;24.00;;;14.67;;
69256;SDS011;56376;53.356;-1.748;2024-03-07T07:17:37;24.60;;;15.17;;
69256;SDS011;56376;53.356;-1.748;2024-03-07T07:20:03;26.63;;;16.03;;
69256;SDS011;56376;53.356;-1.748;2024-03-07T07:22:35;25.73;;;16.73;;
69256;SDS011;56376;53.356;-1.748;2024-03-07T07:25:02;25.90;;;14.07;;
69256;SDS011;56376;53.356;-1.748;2024-03-07T07:27:29;28.57;;;17.60;;
69256;SDS011;56376;53.356;-1.748;2024-03-07T07:29:56;27.67;;;16.67;;
69256;SDS011;56376;53.356;-1.748;2024-03-07T07:32:22;24.30;;;15.90;;
69256;SDS011;56376;53.356;-1.748;2024-03-07T07:37:17;25.37;;;14.27;;
69256;SDS011;56376;53.356;-1.748;2024-03-07T07:39:42;23.77;;;13.87;;
69256;SDS011;56376;53.356;-1.748;2024-03-07T07:42:07;23.23;;;13.57;;
69256;SDS011;56376;53.356;-1.748;2024-03-07T07:44:36;21.93;;;12.90;;
69256;SDS011;56376;53.356;-1.748;2024-03-07T07:47:02;23.33;;;14.30;;
69256;SDS011;56376;53.356;-1.748;2024-03-07T07:49:27;20.70;;;12.73;;
69256;SDS011;56376;53.356;-1.748;2024-03-07T07:51:53;21.60;;;14.23;;
69256;SDS011;56376;53.356;-1.748;2024-03-07T07:54:19;20.93;;;12.87;;
69256;SDS011;56376;53.356;-1.748;2024-03-07T07:56:46;20.17;;;11.87;;
69256;SDS011;56376;53.356;-1.748;2024-03-07T07:59:12;23.23;;;12.90;;
69256;SDS011;56376;53.356;-1.748;2024-03-07T08:01:38;18.90;;;13.63;;
69256;SDS011;56376;53.356;-1.748;2024-03-07T08:04:06;20.10;;;12.97;;
69256;SDS011;56376;53.356;-1.748;2024-03-07T08:06:33;20.93;;;13.07;;
69256;SDS011;56376;53.356;-1.748;2024-03-07T08:08:59;21.73;;;14.07;;
69256;SDS011;56376;53.356;-1.748;2024-03-07T08:11:24;19.93;;;13.63;;
69256;SDS011;56376;53.356;-1.748;2024-03-07T08:13:52;25.73;;;14.83;;
69256;SDS011;56376;53.356;-1.748;2024-03-07T08:16:17;21.73;;;13.03;;
69256;SDS011;56376;53.356;-1.748;2024-03-07T08:18:43;22.57;;;13.23;;
69256;SDS011;56376;53.356;-1.748;2024-03-07T08:21:09;20.33;;;12.60;;
69256;SDS011;56376;53.356;-1.748;2024-03-07T08:23:38;25.67;;;14.13;;
69256;SDS011;56376;53.356;-1.748;2024-03-07T08:26:04;23.37;;;13.53;;
69256;SDS011;56376;53.356;-1.748;2024-03-07T08:28:30;23.77;;;14.60;;
69256;SDS011;56376;53.356;-1.748;2024-03-07T08:30:56;26.07;;;15.33;;
69256;SDS011;56376;53.356;-1.748;2024-03-07T08:33:23;22.83;;;13.57;;
69256;SDS011;56376;53.356;-1.748;2024-03-07T08:35:49;23.23;;;13.30;;
69256;SDS011;56376;53.356;-1.748;2024-03-07T08:38:15;24.20;;;14.30;;
69256;SDS011;56376;53.356;-1.748;2024-03-07T08:40:41;25.70;;;15.17;;
69256;SDS011;56376;53.356;-1.748;2024-03-07T08:43:07;24.53;;;15.37;;
69256;SDS011;56376;53.356;-1.748;2024-03-07T08:45:33;25.50;;;15.43;;
69256;SDS011;56376;53.356;-1.748;2024-03-07T08:47:58;28.47;;;17.60;;
69256;SDS011;56376;53.356;-1.748;2024-03-07T08:50:24;31.53;;;16.83;;
69256;SDS011;56376;53.356;-1.748;2024-03-07T08:52:51;30.07;;;16.80;;
69256;SDS011;56376;53.356;-1.748;2024-03-07T08:55:17;29.83;;;18.20;;
69256;SDS011;56376;53.356;-1.748;2024-03-07T08:57:45;31.50;;;18.70;;
69256;SDS011;56376;53.356;-1.748;2024-03-07T09:00:12;28.73;;;18.20;;
69256;SDS011;56376;53.356;-1.748;2024-03-07T09:02:48;27.20;;;16.17;;
69256;SDS011;56376;53.356;-1.748;2024-03-07T09:05:18;28.80;;;16.93;;
69256;SDS011;56376;53.356;-1.748;2024-03-07T09:07:44;26.33;;;16.97;;
69256;SDS011;56376;53.356;-1.748;2024-03-07T09:10:12;32.27;;;19.10;;
69256;SDS011;56376;53.356;-1.748;2024-03-07T09:12:39;25.33;;;16.40;;
69256;SDS011;56376;53.356;-1.748;2024-03-07T09:15:05;26.63;;;17.13;;
69256;SDS011;56376;53.356;-1.748;2024-03-07T09:17:31;28.23;;;16.10;;
69256;SDS011;56376;53.356;-1.748;2024-03-07T09:19:57;27.20;;;17.90;;
69256;SDS011;56376;53.356;-1.748;2024-03-07T09:22:22;24.13;;;14.93;;
69256;SDS011;56376;53.356;-1.748;2024-03-07T09:24:49;22.80;;;14.33;;
69256;SDS011;56376;53.356;-1.748;2024-03-07T09:27:14;22.23;;;15.17;;
69256;SDS011;56376;53.356;-1.748;2024-03-07T09:29:44;21.93;;;14.40;;
69256;SDS011;56376;53.356;-1.748;2024-03-07T09:32:12;21.63;;;13.10;;
69256;SDS011;56376;53.356;-1.748;2024-03-07T09:34:38;25.10;;;14.70;;
69256;SDS011;56376;53.356;-1.748;2024-03-07T09:37:04;19.30;;;13.10;;
69256;SDS011;56376;53.356;-1.748;2024-03-07T09:39:32;18.60;;;13.00;;
69256;SDS011;56376;53.356;-1.748;2024-03-07T09:42:00;16.70;;;11.83;;
69256;SDS011;56376;53.356;-1.748;2024-03-07T09:44:30;21.17;;;13.10;;
69256;SDS011;56376;53.356;-1.748;2024-03-07T09:46:58;22.57;;;13.63;;
69256;SDS011;56376;53.356;-1.748;2024-03-07T09:49:29;22.33;;;12.90;;
69256;SDS011;56376;53.356;-1.748;2024-03-07T09:51:56;23.90;;;13.30;;
69256;SDS011;56376;53.356;-1.748;2024-03-07T09:54:24;20.03;;;13.83;;
69256;SDS011;56376;53.356;-1.748;2024-03-07T09:56:50;21.87;;;13.77;;
69256;SDS011;56376;53.356;-1.748;2024-03-07T09:59:19;23.23;;;13.63;;
69256;SDS011;56376;53.356;-1.748;2024-03-07T10:01:47;25.90;;;14.50;;
69256;SDS011;56376;53.356;-1.748;2024-03-07T10:04:16;28.43;;;16.20;;
69256;SDS011;56376;53.356;-1.748;2024-03-07T10:07:08;28.70;;;17.10;;
69256;SDS011;56376;53.356;-1.748;2024-03-07T10:09:37;28.73;;;16.00;;
69256;SDS011;56376;53.356;-1.748;2024-03-07T10:12:05;28.67;;;17.43;;
69256;SDS011;56376;53.356;-1.748;2024-03-07T10:14:35;27.87;;;16.33;;
69256;SDS011;56376;53.356;-1.748;2024-03-07T10:17:02;26.63;;;15.73;;
69256;SDS011;56376;53.356;-1.748;2024-03-07T10:19:28;34.73;;;19.30;;
69256;SDS011;56376;53.356;-1.748;2024-03-07T10:21:55;27.63;;;16.27;;
69256;SDS011;56376;53.356;-1.748;2024-03-07T10:24:25;31.13;;;17.93;;
69256;SDS011;56376;53.356;-1.748;2024-03-07T10:26:50;33.53;;;18.17;;
69256;SDS011;56376;53.356;-1.748;2024-03-07T10:29:17;32.87;;;18.17;;
69256;SDS011;56376;53.356;-1.748;2024-03-07T10:31:44;35.70;;;18.67;;
69256;SDS011;56376;53.356;-1.748;2024-03-07T10:34:11;34.70;;;18.20;;
69256;SDS011;56376;53.356;-1.748;2024-03-07T10:36:37;29.50;;;16.33;;
69256;SDS011;56376;53.356;-1.748;2024-03-07T10:39:05;27.93;;;16.57;;
69256;SDS011;56376;53.356;-1.748;2024-03-07T10:41:48;41.67;;;20.25;;
69256;SDS011;56376;53.356;-1.748;2024-03-07T10:44:24;31.37;;;17.43;;
69256;SDS011;56376;53.356;-1.748;2024-03-07T10:46:54;35.27;;;17.97;;
69256;SDS011;56376;53.356;-1.748;2024-03-07T10:49:22;34.50;;;19.40;;
69256;SDS011;56376;53.356;-1.748;2024-03-07T10:52:06;52.05;;;25.10;;
69256;SDS011;56376;53.356;-1.748;2024-03-07T10:57:49;35.83;;;19.57;;
69256;SDS011;56376;53.356;-1.748;2024-03-07T11:00:19;33.30;;;18.97;;
69256;SDS011;56376;53.356;-1.748;2024-03-07T11:03:01;35.10;;;18.90;;
69256;SDS011;56376;53.356;-1.748;2024-03-07T11:05:32;32.23;;;19.17;;
69256;SDS011;56376;53.356;-1.748;2024-03-07T11:07:59;29.50;;;19.40;;
69256;SDS011;56376;53.356;-1.748;2024-03-07T11:10:30;28.93;;;16.90;;
69256;SDS011;56376;53.356;-1.748;2024-03-07T11:12:56;30.20;;;17.43;;
69256;SDS011;56376;53.356;-1.748;2024-03-07T11:15:24;31.20;;;18.87;;
69256;SDS011;56376;53.356;-1.748;2024-03-07T11:17:52;27.67;;;17.00;;
69256;SDS011;56376;53.356;-1.748;2024-03-07T11:22:50;31.33;;;19.67;;
69256;SDS011;56376;53.356;-1.748;2024-03-07T11:25:19;35.47;;;21.13;;
69256;SDS011;56376;53.356;-1.748;2024-03-07T11:27:56;38.77;;;21.90;;
69256;SDS011;56376;53.356;-1.748;2024-03-07T11:30:23;32.43;;;20.87;;
69256;SDS011;56376;53.356;-1.748;2024-03-07T11:32:49;41.70;;;22.90;;
69256;SDS011;56376;53.356;-1.748;2024-03-07T11:35:18;43.90;;;24.20;;
69256;SDS011;56376;53.356;-1.748;2024-03-07T11:38:08;41.47;;;23.97;;
69256;SDS011;56376;53.356;-1.748;2024-03-07T11:43:04;43.73;;;24.00;;
69256;SDS011;56376;53.356;-1.748;2024-03-07T11:45:31;47.17;;;26.27;;
69256;SDS011;56376;53.356;-1.748;2024-03-07T11:48:10;50.83;;;27.53;;
69256;SDS011;56376;53.356;-1.748;2024-03-07T11:50:36;48.80;;;28.07;;
69256;SDS011;56376;53.356;-1.748;2024-03-07T11:53:02;50.07;;;26.87;;
69256;SDS011;56376;53.356;-1.748;2024-03-07T11:55:32;51.00;;;29.60;;
69256;SDS011;56376;53.356;-1.748;2024-03-07T11:58:07;50.67;;;26.37;;
69256;SDS011;56376;53.356;-1.748;2024-03-07T12:00:37;57.33;;;28.63;;
69256;SDS011;56376;53.356;-1.748;2024-03-07T12:03:16;51.93;;;27.97;;
69256;SDS011;56376;53.356;-1.748;2024-03-07T12:05:46;44.33;;;25.00;;
69256;SDS011;56376;53.356;-1.748;2024-03-07T12:08:12;49.50;;;26.30;;
69256;SDS011;56376;53.356;-1.748;2024-03-07T12:10:39;42.53;;;25.03;;
69256;SDS011;56376;53.356;-1.748;2024-03-07T12:13:10;58.23;;;30.37;;
69256;SDS011;56376;53.356;-1.748;2024-03-07T12:15:38;47.13;;;24.73;;
69256;SDS011;56376;53.356;-1.748;2024-03-07T12:18:04;54.83;;;28.17;;
69256;SDS011;56376;53.356;-1.748;2024-03-07T12:20:38;48.07;;;26.67;;
69256;SDS011;56376;53.356;-1.748;2024-03-07T12:23:08;56.97;;;29.13;;
69256;SDS011;56376;53.356;-1.748;2024-03-07T12:25:37;53.80;;;28.30;;
69256;SDS011;56376;53.356;-1.748;2024-03-07T12:28:08;62.37;;;31.37;;
69256;SDS011;56376;53.356;-1.748;2024-03-07T12:30:50;57.97;;;33.25;;
69256;SDS011;56376;53.356;-1.748;2024-03-07T12:33:18;66.80;;;31.57;;
69256;SDS011;56376;53.356;-1.748;2024-03-07T12:35:45;52.60;;;27.93;;
69256;SDS011;56376;53.356;-1.748;2024-03-07T12:38:13;67.80;;;33.93;;
69256;SDS011;56376;53.356;-1.748;2024-03-07T12:40:44;58.10;;;31.33;;
69256;SDS011;56376;53.356;-1.748;2024-03-07T12:43:15;69.13;;;34.87;;
69256;SDS011;56376;53.356;-1.748;2024-03-07T12:45:50;59.90;;;33.23;;
69256;SDS011;56376;53.356;-1.748;2024-03-07T12:48:16;59.87;;;33.40;;
69256;SDS011;56376;53.356;-1.748;2024-03-07T12:50:46;53.23;;;29.30;;
69256;SDS011;56376;53.356;-1.748;2024-03-07T12:53:21;67.30;;;34.30;;
69256;SDS011;56376;53.356;-1.748;2024-03-07T12:55:47;59.33;;;33.03;;
69256;SDS011;56376;53.356;-1.748;2024-03-07T12:58:13;54.77;;;29.80;;
69256;SDS011;56376;53.356;-1.748;2024-03-07T13:00:42;64.13;;;35.67;;
69256;SDS011;56376;53.356;-1.748;2024-03-07T13:03:09;74.27;;;37.63;;
69256;SDS011;56376;53.356;-1.748;2024-03-07T13:05:35;66.77;;;37.57;;
69256;SDS011;56376;53.356;-1.748;2024-03-07T13:08:05;66.13;;;34.73;;
69256;SDS011;56376;53.356;-1.748;2024-03-07T13:10:36;57.57;;;31.40;;
69256;SDS011;56376;53.356;-1.748;2024-03-07T13:13:04;58.63;;;33.67;;
69256;SDS011;56376;53.356;-1.748;2024-03-07T13:15:30;53.43;;;30.23;;
69256;SDS011;56376;53.356;-1.748;2024-03-07T13:17:55;57.23;;;33.80;;
69256;SDS011;56376;53.356;-1.748;2024-03-07T13:20:21;55.57;;;33.00;;
69256;SDS011;56376;53.356;-1.748;2024-03-07T13:22:52;61.27;;;33.27;;
69256;SDS011;56376;53.356;-1.748;2024-03-07T13:25:24;56.33;;;32.87;;
69256;SDS011;56376;53.356;-1.748;2024-03-07T13:28:05;56.03;;;33.07;;
69256;SDS011;56376;53.356;-1.748;2024-03-07T13:30:38;52.50;;;31.03;;
69256;SDS011;56376;53.356;-1.748;2024-03-07T13:33:06;52.70;;;31.53;;
69256;SDS011;56376;53.356;-1.748;2024-03-07T13:35:32;53.20;;;31.30;;
69256;SDS011;56376;53.356;-1.748;2024-03-07T13:37:58;56.27;;;33.57;;
69256;SDS011;56376;53.356;-1.748;2024-03-07T13:40:24;51.93;;;30.20;;
69256;SDS011;56376;53.356;-1.748;2024-03-07T13:42:58;53.13;;;32.37;;
69256;SDS011;56376;53.356;-1.748;2024-03-07T13:47:52;44.10;;;28.67;;
69256;SDS011;56376;53.356;-1.748;2024-03-07T13:50:22;43.27;;;29.13;;
69256;SDS011;56376;53.356;-1.748;2024-03-07T13:52:49;45.23;;;28.87;;
69256;SDS011;56376;53.356;-1.748;2024-03-07T13:55:36;40.80;;;25.47;;
69256;SDS011;56376;53.356;-1.748;2024-03-07T13:58:13;42.80;;;26.43;;
69256;SDS011;56376;53.356;-1.748;2024-03-07T14:00:53;43.75;;;25.85;;
69256;SDS011;56376;53.356;-1.748;2024-03-07T14:12:10;32.33;;;22.47;;
69256;SDS011;56376;53.356;-1.748;2024-03-07T14:32:50;35.07;;;23.00;;
69256;SDS011;56376;53.356;-1.748;2024-03-07T14:38:23;38.03;;;22.87;;
69256;SDS011;56376;53.356;-1.748;2024-03-07T14:40:52;30.10;;;19.93;;
69256;SDS011;56376;53.356;-1.748;2024-03-07T14:43:18;38.00;;;24.20;;
69256;SDS011;56376;53.356;-1.748;2024-03-07T14:45:45;36.57;;;23.60;;
69256;SDS011;56376;53.356;-1.748;2024-03-07T14:48:12;30.77;;;20.77;;
69256;SDS011;56376;53.356;-1.748;2024-03-07T14:50:41;34.25;;;22.92;;
69256;SDS011;56376;53.356;-1.748;2024-03-07T14:53:10;34.83;;;21.70;;
69256;SDS011;56376;53.356;-1.748;2024-03-07T14:55:37;31.42;;;21.05;;
69256;SDS011;56376;53.356;-1.748;2024-03-07T14:58:05;34.08;;;21.27;;
69256;SDS011;56376;53.356;-1.748;2024-03-07T15:00:35;32.15;;;22.17;;
69256;SDS011;56376;53.356;-1.748;2024-03-07T15:03:09;31.20;;;21.52;;
69256;SDS011;56376;53.356;-1.748;2024-03-07T15:05:39;29.95;;;20.55;;